Time;durP1;ratioP1;P1;durP2;ratioP2;P2;SDS_P1;SDS_P2;PMS_P1;PMS_P2;Temp;Humidity;BMP_temperature;BMP_pressure;BME280_temperature;BME280_humidity;BME280_pressure;Samples;Min_cycle;Max_cycle;Signal;HPM_P1;HPM_P2
2022/09/14 00:00:51;;;;;;;9.63;7.97;;;21.80;67.10;;;;;;4978333;28;20054;-46
2022/09/14 00:03:19;;;;;;;10.88;8.02;;;21.80;66.90;;;;;;4984666;28;20061;-46
2022/09/14 00:05:46;;;;;;;9.68;8.07;;;21.80;66.80;;;;;;4985250;28;20058;-46
2022/09/14 00:08:14;;;;;;;9.20;8.07;;;21.80;66.70;;;;;;4985585;28;20502;-46
2022/09/14 00:10:42;;;;;;;10.98;8.43;;;21.80;66.60;;;;;;4982296;28;20057;-47
2022/09/14 00:13:10;;;;;;;10.60;8.50;;;21.80;66.60;;;;;;4982994;28;20065;-47
2022/09/14 00:15:42;;;;;;;13.00;8.98;;;21.90;66.50;;;;;;4984848;28;20054;-47
2022/09/14 00:18:11;;;;;;;12.48;9.23;;;21.90;66.50;;;;;;4984266;28;20058;-48
2022/09/14 00:20:38;;;;;;;10.98;9.55;;;21.90;66.40;;;;;;4981967;28;20057;-49
2022/09/14 00:23:05;;;;;;;15.80;10.20;;;21.90;66.20;;;;;;4984732;28;20059;-46
2022/09/14 00:25:32;;;;;;;10.85;8.27;;;21.90;66.10;;;;;;4981282;28;20623;-46
2022/09/14 00:28:00;;;;;;;11.70;9.05;;;21.90;66.00;;;;;;4983190;28;20066;-46
2022/09/14 00:30:27;;;;;;;12.93;9.43;;;21.90;66.10;;;;;;4980926;28;20061;-46
2022/09/14 00:32:56;;;;;;;11.93;9.40;;;21.90;66.10;;;;;;4983244;28;20046;-46
2022/09/14 00:35:23;;;;;;;11.90;8.55;;;21.90;66.20;;;;;;4985111;28;20414;-49
2022/09/14 00:37:51;;;;;;;12.05;9.15;;;21.90;66.10;;;;;;4983275;28;20061;-49
2022/09/14 00:40:18;;;;;;;9.95;7.93;;;21.90;66.10;;;;;;4978995;28;20050;-53
2022/09/14 00:42:46;;;;;;;9.02;7.32;;;22.00;66.10;;;;;;4983885;28;20066;-48
2022/09/14 00:45:18;;;;;;;9.82;6.88;;;21.90;65.90;;;;;;4982515;28;20058;-46
2022/09/14 00:47:49;;;;;;;11.32;8.02;;;22.00;66.00;;;;;;4983472;28;20487;-49
2022/09/14 00:50:18;;;;;;;11.63;8.82;;;21.90;65.80;;;;;;4981956;28;20054;-49
2022/09/14 00:52:48;;;;;;;12.75;8.20;;;22.00;65.80;;;;;;4980803;28;20062;-48
2022/09/14 00:55:18;;;;;;;11.45;8.65;;;22.00;65.70;;;;;;4983231;28;20054;-49
2022/09/14 00:57:48;;;;;;;11.63;8.35;;;21.90;65.70;;;;;;4983769;28;20061;-50
2022/09/14 01:00:19;;;;;;;9.05;7.60;;;21.90;65.60;;;;;;4980338;28;20503;-48
2022/09/14 01:02:46;;;;;;;9.57;7.70;;;21.90;65.50;;;;;;4982194;28;20058;-48
2022/09/14 01:05:14;;;;;;;10.25;8.55;;;21.90;65.50;;;;;;4982633;28;20050;-49
2022/09/14 01:08:11;;;;;;;9.88;8.43;;;22.00;65.50;;;;;;4981295;28;20066;-50
2022/09/14 01:10:58;;;;;;;13.18;8.90;;;21.90;65.50;;;;;;4978685;28;20061;-48
2022/09/14 01:13:36;;;;;;;10.43;8.68;;;22.00;65.50;;;;;;4981466;28;20050;-49
2022/09/14 01:16:13;;;;;;;11.35;8.82;;;21.90;65.40;;;;;;4981218;28;20058;-52
2022/09/14 01:18:45;;;;;;;10.32;7.97;;;22.00;65.40;;;;;;4982357;28;20050;-50
2022/09/14 01:21:15;;;;;;;11.02;8.70;;;22.00;65.30;;;;;;4980430;28;20054;-47
2022/09/14 01:23:48;;;;;;;11.90;9.20;;;21.90;65.20;;;;;;4982614;28;20517;-46
2022/09/14 01:26:32;;;;;;;10.20;8.85;;;21.90;65.20;;;;;;4983173;28;20058;-49
2022/09/14 01:29:05;;;;;;;10.18;8.40;;;22.00;65.20;;;;;;4981440;28;20054;-49
2022/09/14 01:31:38;;;;;;;10.10;8.23;;;22.00;65.10;;;;;;4978225;28;20494;-49
2022/09/14 01:34:10;;;;;;;11.05;8.88;;;21.90;65.10;;;;;;4979843;28;20072;-50
2022/09/14 01:36:39;;;;;;;11.95;9.70;;;22.00;65.20;;;;;;4979682;28;20054;-50
2022/09/14 01:39:08;;;;;;;15.75;10.45;;;21.90;65.20;;;;;;4980408;28;20061;-47
2022/09/14 01:41:36;;;;;;;14.60;11.20;;;21.90;65.20;;;;;;4978521;28;20058;-47
2022/09/14 01:44:09;;;;;;;14.23;10.20;;;21.90;65.20;;;;;;4982816;28;20050;-47
2022/09/14 01:46:40;;;;;;;14.50;10.25;;;21.90;65.30;;;;;;4980991;28;20058;-47
2022/09/14 01:49:12;;;;;;;12.70;9.80;;;21.90;65.20;;;;;;4980305;28;20050;-48
2022/09/14 01:51:43;;;;;;;16.10;11.68;;;21.90;65.20;;;;;;4978272;28;20521;-50
2022/09/14 01:54:17;;;;;;;11.68;8.95;;;21.90;65.20;;;;;;4979818;28;20057;-50
2022/09/14 01:56:51;;;;;;;15.23;10.15;;;21.90;65.20;;;;;;4982754;28;20065;-48
2022/09/14 01:59:23;;;;;;;15.27;9.93;;;21.90;65.20;;;;;;4980459;28;20099;-54
2022/09/14 02:01:53;;;;;;;15.82;10.68;;;21.90;65.10;;;;;;4978478;28;20054;-49
2022/09/14 02:04:26;;;;;;;17.15;9.45;;;21.90;65.10;;;;;;4983596;28;20054;-44
2022/09/14 02:06:55;;;;;;;10.85;8.70;;;21.90;65.00;;;;;;4982798;28;20526;-50
2022/09/14 02:09:25;;;;;;;13.55;10.02;;;21.90;65.00;;;;;;4982681;28;20058;-49
2022/09/14 02:11:54;;;;;;;18.05;10.20;;;21.80;65.00;;;;;;4977156;28;20050;-51
2022/09/14 02:14:23;;;;;;;12.80;9.57;;;21.80;65.10;;;;;;4982854;28;20061;-45
2022/09/14 02:16:50;;;;;;;16.38;11.48;;;21.80;65.10;;;;;;5180020;22;20061;-50
2022/09/14 02:19:17;;;;;;;11.93;9.23;;;21.80;65.10;;;;;;4978264;28;20061;-51
2022/09/14 02:21:45;;;;;;;11.88;9.18;;;21.90;65.10;;;;;;4979104;28;20062;-56
2022/09/14 02:24:14;;;;;;;12.25;9.02;;;21.90;65.10;;;;;;4981310;28;20058;-55
2022/09/14 02:26:42;;;;;;;10.63;8.68;;;21.80;65.10;;;;;;4981170;28;20061;-57
2022/09/14 02:29:09;;;;;;;16.15;9.77;;;21.80;65.10;;;;;;4982128;28;20185;-56
2022/09/14 02:31:47;;;;;;;13.68;9.70;;;21.80;65.10;;;;;;4977090;28;20050;-55
2022/09/14 02:34:24;;;;;;;12.10;9.20;;;21.80;65.30;;;;;;4980953;28;20058;-54
2022/09/14 02:36:58;;;;;;;11.05;8.55;;;21.80;65.30;;;;;;4985874;28;20070;-56
2022/09/14 02:39:27;;;;;;;;;;;21.80;65.20;;;;;;4986907;28;20391;-57
2022/09/14 02:42:03;;;;;;;15.10;9.63;;;21.90;65.00;;;;;;4980251;28;19930;-54
2022/09/14 02:44:38;;;;;;;13.52;9.75;;;21.90;64.90;;;;;;4985921;28;20065;-53
2022/09/14 02:47:15;;;;;;;13.68;9.82;;;21.80;64.90;;;;;;4985657;28;20077;-57
2022/09/14 02:49:49;;;;;;;12.52;9.45;;;21.80;65.00;;;;;;4986308;28;20058;-54
2022/09/14 02:52:22;;;;;;;13.82;10.60;;;21.80;65.00;;;;;;4977991;28;20053;-56
2022/09/14 02:54:57;;;;;;;15.45;11.20;;;21.80;65.00;;;;;;4983012;28;20054;-56
2022/09/14 02:57:25;;;;;;;14.38;9.32;;;21.80;65.10;;;;;;4985655;28;20420;-56
2022/09/14 02:59:53;;;;;;;14.43;9.95;;;21.80;65.00;;;;;;4980093;28;20401;-55
2022/09/14 03:02:22;;;;;;;13.98;10.52;;;21.80;65.00;;;;;;4985127;28;20046;-55
2022/09/14 03:04:49;;;;;;;14.35;10.63;;;21.80;65.00;;;;;;4984440;28;20409;-56
2022/09/14 03:07:17;;;;;;;20.17;12.07;;;21.80;64.90;;;;;;4979677;28;20057;-49
2022/09/14 03:09:44;;;;;;;45.70;12.38;;;21.80;65.00;;;;;;4981249;28;20417;-53
2022/09/14 03:12:11;;;;;;;14.55;10.30;;;21.70;65.00;;;;;;4982329;28;20054;-54
2022/09/14 03:14:38;;;;;;;14.68;10.63;;;21.70;65.00;;;;;;4983997;28;20422;-52
2022/09/14 03:17:06;;;;;;;13.05;9.52;;;21.70;65.20;;;;;;4982973;28;20573;-55
2022/09/14 03:19:35;;;;;;;17.83;11.85;;;21.70;65.30;;;;;;4980955;28;20565;-57
2022/09/14 03:22:02;;;;;;;15.75;10.93;;;21.70;65.30;;;;;;4978672;28;20077;-56
2022/09/14 03:24:30;;;;;;;13.73;10.20;;;21.60;65.30;;;;;;4982328;28;20061;-56
2022/09/14 03:26:57;;;;;;;15.35;10.18;;;21.60;65.40;;;;;;4980655;28;20058;-53
2022/09/14 03:29:24;;;;;;;13.13;10.07;;;21.60;65.60;;;;;;4983442;28;20537;-57
2022/09/14 03:31:51;;;;;;;13.27;10.10;;;21.60;65.70;;;;;;4978717;28;20046;-56
2022/09/14 03:34:19;;;;;;;12.63;9.93;;;21.60;65.70;;;;;;4977337;28;20046;-53
2022/09/14 03:36:47;;;;;;;13.93;10.35;;;21.60;65.80;;;;;;4983834;28;20058;-57
2022/09/14 03:39:14;;;;;;;12.40;10.07;;;21.60;65.90;;;;;;4981217;28;20061;-57
2022/09/14 03:41:41;;;;;;;14.52;9.35;;;21.60;65.80;;;;;;4974457;28;20050;-56
2022/09/14 03:44:10;;;;;;;12.73;9.70;;;21.60;65.80;;;;;;4983639;28;20389;-56
2022/09/14 03:46:37;;;;;;;13.73;10.27;;;21.70;65.90;;;;;;4978818;28;20069;-54
2022/09/14 03:49:04;;;;;;;11.60;9.25;;;21.60;65.80;;;;;;4980314;28;20530;-57
2022/09/14 03:51:33;;;;;;;12.90;9.25;;;21.70;65.90;;;;;;4982819;28;20050;-54
2022/09/14 03:54:02;;;;;;;15.02;10.98;;;21.70;65.90;;;;;;4977716;28;20516;-56
2022/09/14 03:56:29;;;;;;;15.50;10.68;;;21.70;65.90;;;;;;4981636;28;20057;-56
2022/09/14 03:58:57;;;;;;;14.32;10.65;;;21.70;65.80;;;;;;4982300;28;20057;-56
2022/09/14 04:01:24;;;;;;;13.18;10.05;;;21.70;65.80;;;;;;4979059;28;20498;-57
2022/09/14 04:03:51;;;;;;;14.20;10.32;;;21.70;66.50;;;;;;4980354;28;20058;-57
2022/09/14 04:06:19;;;;;;;13.82;10.43;;;21.70;65.80;;;;;;4980519;28;20407;-57
2022/09/14 04:08:47;;;;;;;15.95;10.82;;;21.70;65.80;;;;;;4981340;28;20054;-55
2022/09/14 04:11:17;;;;;;;13.05;9.93;;;21.70;65.80;;;;;;4978504;28;20054;-57
2022/09/14 04:13:46;;;;;;;13.60;10.00;;;21.70;65.80;;;;;;4980930;28;20050;-54
2022/09/14 04:16:13;;;;;;;16.13;10.65;;;21.70;65.80;;;;;;4974890;28;20055;-56
2022/09/14 04:18:41;;;;;;;13.85;9.75;;;21.70;65.80;;;;;;4974845;28;20971;-53
2022/09/14 04:21:12;;;;;;;15.00;10.30;;;21.70;65.80;;;;;;4978553;28;20523;-55
2022/09/14 04:23:39;;;;;;;13.43;9.35;;;21.70;65.90;;;;;;4978747;28;20049;-55
2022/09/14 04:26:11;;;;;;;11.75;9.65;;;21.70;65.80;;;;;;4981308;28;20055;-54
2022/09/14 04:28:40;;;;;;;14.88;9.60;;;21.70;65.90;;;;;;4981522;28;20065;-56
2022/09/14 04:31:09;;;;;;;12.30;8.93;;;21.70;65.90;;;;;;4973024;28;20043;-55
2022/09/14 04:33:38;;;;;;;46.67;10.35;;;21.70;65.80;;;;;;4982886;28;20390;-56
2022/09/14 04:36:08;;;;;;;23.67;7.15;;;21.70;65.90;;;;;;4984799;28;20065;-55
2022/09/14 04:38:37;;;;;;;6.25;5.43;;;21.70;65.90;;;;;;4981207;28;20525;-56
2022/09/14 04:41:05;;;;;;;6.28;5.60;;;21.70;65.80;;;;;;4975981;28;20592;-54
2022/09/14 04:43:33;;;;;;;6.00;5.40;;;21.70;65.90;;;;;;4974601;28;20050;-55
2022/09/14 04:46:03;;;;;;;10.27;6.28;;;21.70;65.90;;;;;;4983225;28;20054;-56
2022/09/14 04:48:33;;;;;;;7.45;5.85;;;21.60;66.10;;;;;;4980885;28;20055;-56
2022/09/14 04:51:03;;;;;;;9.90;7.30;;;21.60;66.00;;;;;;4982312;28;20054;-56
2022/09/14 04:53:30;;;;;;;10.52;8.52;;;21.60;66.00;;;;;;4984481;28;20059;-55
2022/09/14 04:56:00;;;;;;;9.35;7.32;;;21.60;66.10;;;;;;4984591;28;20058;-54
2022/09/14 04:58:28;;;;;;;10.27;7.30;;;21.60;66.30;;;;;;4978150;28;20426;-54
2022/09/14 05:01:00;;;;;;;11.05;8.27;;;21.60;66.20;;;;;;4983216;28;20058;-54
2022/09/14 05:03:29;;;;;;;11.18;8.80;;;21.60;66.10;;;;;;4974251;28;20054;-54
2022/09/14 05:06:00;;;;;;;10.80;8.63;;;21.60;66.20;;;;;;4975852;28;20069;-55
2022/09/14 05:08:28;;;;;;;12.68;8.80;;;21.60;66.20;;;;;;4982367;28;20057;-56
2022/09/14 05:10:55;;;;;;;10.68;8.43;;;21.60;66.20;;;;;;4966189;28;20467;-55
2022/09/14 05:13:23;;;;;;;10.57;8.32;;;21.60;66.20;;;;;;4979353;28;20601;-56
2022/09/14 05:15:50;;;;;;;11.25;8.80;;;21.60;66.20;;;;;;4983901;28;20074;-55
2022/09/14 05:18:18;;;;;;;13.13;9.50;;;21.60;66.30;;;;;;4974487;28;20419;-56
2022/09/14 05:20:46;;;;;;;13.85;9.63;;;21.60;67.00;;;;;;4970368;28;20081;-56
2022/09/14 05:23:14;;;;;;;13.25;9.98;;;21.70;66.50;;;;;;4979635;28;20047;-56
2022/09/14 05:25:41;;;;;;;13.45;9.88;;;21.70;66.40;;;;;;4981449;28;20046;-56
2022/09/14 05:28:08;;;;;;;13.18;9.13;;;21.70;66.50;;;;;;4977660;28;20053;-55
2022/09/14 05:30:40;;;;;;;12.27;8.48;;;21.70;66.40;;;;;;4973038;28;20058;-55
2022/09/14 05:33:07;;;;;;;9.13;7.65;;;21.60;66.50;;;;;;4974408;28;20537;-56
2022/09/14 05:35:34;;;;;;;14.48;7.78;;;21.70;66.40;;;;;;4970529;28;20050;-55
2022/09/14 05:38:03;;;;;;;9.57;7.35;;;21.60;66.40;;;;;;4974039;28;20066;-55
2022/09/14 05:40:30;;;;;;;9.50;6.65;;;21.70;66.50;;;;;;4971593;28;20062;-56
2022/09/14 05:42:58;;;;;;;7.25;5.90;;;21.70;66.50;;;;;;4971703;28;20348;-54
2022/09/14 05:45:25;;;;;;;8.15;6.18;;;21.70;66.50;;;;;;4976321;28;20054;-56
2022/09/14 05:47:52;;;;;;;6.43;4.97;;;21.70;66.50;;;;;;4976531;28;20058;-56
2022/09/14 05:50:19;;;;;;;10.20;5.85;;;21.70;66.50;;;;;;4974477;28;20972;-55
2022/09/14 05:52:47;;;;;;;6.38;4.57;;;21.70;66.50;;;;;;4980352;28;20548;-56
2022/09/14 05:55:16;;;;;;;6.95;5.20;;;21.70;66.50;;;;;;4974241;28;20050;-52
2022/09/14 05:57:43;;;;;;;7.20;5.07;;;21.70;66.50;;;;;;4977620;28;20067;-56
2022/09/14 06:00:12;;;;;;;6.55;5.20;;;21.70;66.50;;;;;;4963589;28;20050;-55
2022/09/14 06:02:39;;;;;;;10.23;6.32;;;21.70;66.60;;;;;;4969271;28;20054;-56
2022/09/14 06:05:06;;;;;;;7.70;5.88;;;21.70;66.60;;;;;;4973833;28;20058;-54
2022/09/14 06:07:34;;;;;;;5.80;5.07;;;21.70;66.60;;;;;;4975934;28;20046;-55
2022/09/14 06:10:02;;;;;;;6.68;5.13;;;21.70;67.30;;;;;;4972154;28;20067;-51
2022/09/14 06:12:30;;;;;;;8.95;5.22;;;21.70;66.60;;;;;;4967484;28;20059;-56
2022/09/14 06:14:58;;;;;;;6.15;4.22;;;21.70;66.60;;;;;;4979675;28;20061;-52
2022/09/14 06:17:26;;;;;;;5.78;4.45;;;21.70;66.60;;;;;;4972278;28;20505;-52
2022/09/14 06:19:53;;;;;;;7.88;5.63;;;21.80;66.70;;;;;;4967474;28;20050;-55
2022/09/14 06:22:20;;;;;;;59.33;33.97;;;21.80;67.40;;;;;;4963300;28;20485;-53
2022/09/14 06:24:47;;;;;;;16.60;11.32;;;21.80;66.70;;;;;;4970046;28;20058;-54
2022/09/14 06:27:15;;;;;;;9.02;6.40;;;21.70;66.60;;;;;;4966120;28;20074;-51
2022/09/14 06:29:44;;;;;;;6.78;4.72;;;21.70;66.70;;;;;;4964133;28;20054;-52
2022/09/14 06:32:11;;;;;;;5.18;3.97;;;21.70;66.70;;;;;;4971889;28;20055;-54
2022/09/14 06:34:38;;;;;;;6.18;3.90;;;21.80;66.80;;;;;;4978902;28;20496;-53
2022/09/14 06:37:05;;;;;;;4.95;3.97;;;21.80;66.80;;;;;;4973578;28;20502;-49
2022/09/14 06:39:33;;;;;;;4.05;3.60;;;21.80;66.80;;;;;;4975423;28;20050;-52
2022/09/14 06:42:00;;;;;;;6.10;4.70;;;21.80;66.80;;;;;;4961058;28;20070;-54
2022/09/14 06:44:27;;;;;;;5.22;4.38;;;21.80;66.80;;;;;;4971916;28;20477;-53
2022/09/14 06:46:55;;;;;;;7.20;5.03;;;21.80;66.90;;;;;;4967672;28;20520;-52
2022/09/14 06:49:23;;;;;;;5.68;4.57;;;21.80;67.00;;;;;;4979472;28;20434;-56
2022/09/14 06:51:54;;;;;;;5.20;4.50;;;21.80;67.00;;;;;;4969777;28;20059;-55
2022/09/14 06:54:21;;;;;;;4.40;4.00;;;21.80;67.00;;;;;;4978368;28;20050;-52
2022/09/14 06:56:48;;;;;;;5.32;3.60;;;21.80;67.00;;;;;;4976188;28;20518;-53
2022/09/14 06:59:17;;;;;;;4.85;4.30;;;21.80;66.90;;;;;;4976644;28;20050;-53
2022/09/14 07:01:45;;;;;;;9.32;4.57;;;21.80;66.90;;;;;;4970474;28;20062;-54
2022/09/14 07:04:14;;;;;;;24.55;4.38;;;21.80;67.00;;;;;;4967637;28;20054;-53
2022/09/14 07:06:43;;;;;;;3.83;3.40;;;21.80;67.10;;;;;;4973860;28;20070;-54
2022/09/14 07:09:10;;;;;;;10.18;3.97;;;21.70;67.10;;;;;;4977856;28;20055;-51
2022/09/14 07:11:38;;;;;;;90.45;7.43;;;21.70;67.20;;;;;;4969443;28;20850;-51
2022/09/14 07:14:06;;;;;;;56.30;5.32;;;21.70;67.40;;;;;;4974456;28;20053;-53
2022/09/14 07:16:35;;;;;;;14.93;4.28;;;21.60;67.50;;;;;;4975472;28;20058;-52
2022/09/14 07:19:05;;;;;;;13.50;5.10;;;21.60;67.70;;;;;;4974348;28;20802;-48
2022/09/14 07:21:35;;;;;;;31.90;5.90;;;21.60;68.00;;;;;;4970327;28;20066;-52
2022/09/14 07:24:03;;;;;;;68.95;5.25;;;21.50;68.10;;;;;;4981599;28;20046;-50
2022/09/14 07:26:32;;;;;;;6.10;4.28;;;21.50;68.30;;;;;;4980908;28;20054;-53
2022/09/14 07:29:02;;;;;;;5.53;4.20;;;21.50;68.50;;;;;;4981582;28;20053;-49
2022/09/14 07:31:31;;;;;;;5.82;4.30;;;21.50;68.60;;;;;;4967164;28;20057;-54
2022/09/14 07:34:00;;;;;;;5.63;4.32;;;21.50;68.80;;;;;;4973868;28;21051;-52
2022/09/14 07:36:28;;;;;;;7.35;5.55;;;21.50;68.90;;;;;;4981830;28;20054;-51
2022/09/14 07:38:57;;;;;;;8.35;5.90;;;21.40;69.00;;;;;;4979441;28;20060;-53
2022/09/14 07:41:25;;;;;;;6.65;4.57;;;21.40;69.30;;;;;;4973278;28;20577;-53
2022/09/14 07:43:55;;;;;;;11.18;4.63;;;21.40;69.20;;;;;;4983008;28;20065;-54
2022/09/14 07:46:23;;;;;;;4.82;4.05;;;21.50;69.40;;;;;;4979101;28;20061;-52
2022/09/14 07:48:55;;;;;;;6.68;4.80;;;21.40;69.40;;;;;;4983023;28;20054;-51
2022/09/14 07:51:23;;;;;;;5.63;4.70;;;21.50;69.60;;;;;;4971894;28;20050;-49
2022/09/14 07:53:51;;;;;;;5.22;4.25;;;21.50;69.50;;;;;;4979300;28;20061;-53
2022/09/14 07:56:20;;;;;;;6.30;4.40;;;21.50;69.60;;;;;;4980615;28;20054;-50
2022/09/14 07:58:48;;;;;;;4.68;4.15;;;21.50;69.60;;;;;;4983099;28;20054;-47
2022/09/14 08:01:17;;;;;;;5.57;3.90;;;21.60;69.50;;;;;;4974269;28;20521;-53
2022/09/14 08:03:47;;;;;;;6.25;3.83;;;21.60;69.40;;;;;;4977599;28;20395;-51
2022/09/14 08:06:16;;;;;;;3.90;3.47;;;21.60;69.30;;;;;;4979105;28;20054;-53
2022/09/14 08:08:45;;;;;;;6.15;3.90;;;21.60;69.20;;;;;;4982044;28;20062;-54
2022/09/14 08:11:13;;;;;;;5.80;3.70;;;21.70;69.20;;;;;;4971921;28;20046;-53
2022/09/14 08:13:44;;;;;;;4.30;3.15;;;21.70;69.20;;;;;;4981465;28;20077;-53
2022/09/14 08:16:12;;;;;;;3.58;2.95;;;21.70;69.80;;;;;;4979477;28;20418;-54
2022/09/14 08:18:40;;;;;;;4.13;2.97;;;21.80;69.20;;;;;;4971482;28;20066;-51
2022/09/14 08:21:09;;;;;;;4.88;3.10;;;21.70;69.00;;;;;;4973997;28;20053;-54
2022/09/14 08:23:37;;;;;;;4.45;2.70;;;21.80;69.10;;;;;;4980835;28;20050;-51
2022/09/14 08:26:05;;;;;;;3.88;2.60;;;21.80;69.10;;;;;;4978124;28;20062;-52
2022/09/14 08:28:35;;;;;;;2.55;2.30;;;21.90;69.00;;;;;;4979897;28;20058;-55
2022/09/14 08:31:05;;;;;;;3.05;2.45;;;21.90;69.00;;;;;;4973465;28;20054;-51
2022/09/14 08:33:33;;;;;;;2.78;2.45;;;21.90;68.90;;;;;;4982413;28;20058;-53
2022/09/14 08:36:01;;;;;;;3.13;2.63;;;21.90;68.90;;;;;;4981598;28;20058;-51
2022/09/14 08:38:29;;;;;;;2.90;2.50;;;21.90;68.80;;;;;;4975850;28;20061;-50
2022/09/14 08:40:58;;;;;;;3.38;2.08;;;21.90;68.80;;;;;;4971296;28;20057;-54
2022/09/14 08:43:27;;;;;;;3.05;2.35;;;22.00;68.80;;;;;;4979270;28;20053;-53
2022/09/14 08:46:01;;;;;;;3.10;2.45;;;22.00;69.40;;;;;;4977976;28;20054;-54
2022/09/14 08:48:35;;;;;;;6.40;2.20;;;22.00;68.70;;;;;;4967470;28;20050;-52
2022/09/14 08:51:03;;;;;;;3.60;2.50;;;22.00;68.60;;;;;;4975328;28;20054;-55
2022/09/14 08:53:35;;;;;;;4.38;2.70;;;22.10;68.50;;;;;;4977417;28;20054;-54
2022/09/14 08:56:09;;;;;;;2.45;2.03;;;22.10;68.70;;;;;;4976095;28;20050;-51
2022/09/14 08:58:51;;;;;;;2.60;1.88;;;22.10;68.60;;;;;;4975849;28;20064;-52
2022/09/14 09:01:25;;;;;;;4.72;2.28;;;22.10;68.60;;;;;;4972489;28;20061;-53
2022/09/14 09:04:08;;;;;;;2.47;1.90;;;22.10;68.40;;;;;;4982714;28;20413;-54
2022/09/14 09:06:40;;;;;;;2.25;1.77;;;22.10;68.40;;;;;;4981606;28;20054;-50
2022/09/14 09:09:12;;;;;;;2.53;1.90;;;22.20;68.50;;;;;;4978704;28;20061;-53
2022/09/14 09:11:42;;;;;;;2.47;1.80;;;22.20;68.50;;;;;;4972423;28;20058;-52
2022/09/14 09:14:19;;;;;;;2.10;1.88;;;22.20;68.40;;;;;;4974584;28;20046;-53
2022/09/14 09:16:51;;;;;;;3.05;2.13;;;22.20;68.60;;;;;;4979651;28;20538;-54
2022/09/14 09:19:24;;;;;;;2.38;1.35;;;22.20;68.60;;;;;;4981611;28;20126;-48
2022/09/14 09:21:51;;;;;;;4.05;1.00;;;22.20;68.50;;;;;;4972470;28;20062;-55
2022/09/14 09:24:26;;;;;;;3.20;0.95;;;22.20;68.40;;;;;;4972566;28;20530;-50
2022/09/14 09:26:53;;;;;;;2.05;1.00;;;22.20;68.40;;;;;;4978629;28;20061;-50
2022/09/14 09:29:20;;;;;;;1.90;0.90;;;22.30;68.30;;;;;;4980034;28;20061;-51
2022/09/14 09:31:51;;;;;;;7.15;1.17;;;22.30;68.30;;;;;;4970973;28;20402;-53
2022/09/14 09:34:27;;;;;;;2.55;0.98;;;22.30;68.30;;;;;;4978728;28;20046;-53
2022/09/14 09:36:55;;;;;;;2.83;0.88;;;22.30;68.40;;;;;;4979961;28;20058;-54
2022/09/14 09:39:24;;;;;;;1.15;0.75;;;22.30;68.30;;;;;;4978215;28;20076;-54
2022/09/14 09:41:58;;;;;;;1.67;0.85;;;22.30;68.40;;;;;;4969719;28;20140;-55
2022/09/14 09:44:26;;;;;;;;;;;22.30;68.60;;;;;;4977979;28;20051;-49
2022/09/14 09:46:55;;;;;;;2.10;0.70;;;22.40;68.40;;;;;;4975192;28;19921;-51
2022/09/14 09:49:31;;;;;;;3.47;0.70;;;22.40;68.20;;;;;;4983574;28;20065;-54
2022/09/14 09:52:08;;;;;;;2.80;0.90;;;22.40;68.30;;;;;;4977095;28;20058;-53
2022/09/14 09:54:38;;;;;;;1.70;0.80;;;22.40;68.10;;;;;;4981095;28;20057;-49
2022/09/14 09:57:18;;;;;;;4.47;0.88;;;22.40;67.90;;;;;;4980221;28;20066;-51
2022/09/14 09:59:47;;;;;;;0.82;0.65;;;22.40;67.90;;;;;;4980124;28;20054;-52
2022/09/14 10:02:22;;;;;;;1.75;0.68;;;22.40;67.70;;;;;;4977786;28;20058;-54
2022/09/14 10:05:06;;;;;;;1.38;0.98;;;22.40;67.80;;;;;;4982651;28;20050;-55
2022/09/14 10:07:37;;;;;;;0.95;0.60;;;22.40;68.10;;;;;;4976748;28;20046;-53
2022/09/14 10:10:07;;;;;;;1.30;0.70;;;22.40;67.90;;;;;;4978124;28;20042;-53
2022/09/14 10:12:36;;;;;;;4.38;0.90;;;22.40;68.10;;;;;;4975544;28;20061;-54
2022/09/14 10:15:13;;;;;;;1.40;0.90;;;22.50;68.20;;;;;;4982245;28;20058;-55
2022/09/14 10:17:40;;;;;;;10.10;1.35;;;22.50;68.30;;;;;;4978828;28;20058;-54
2022/09/14 10:20:21;;;;;;;2.85;1.00;;;22.50;68.20;;;;;;4978887;28;20059;-54
2022/09/14 10:22:49;;;;;;;2.30;1.23;;;22.60;68.20;;;;;;4979747;28;20058;-54
2022/09/14 10:25:24;;;;;;;2.08;0.80;;;22.60;68.10;;;;;;4975265;28;20050;-52
2022/09/14 10:27:58;;;;;;;5.18;0.93;;;22.50;68.00;;;;;;4979332;28;20062;-54
2022/09/14 10:30:28;;;;;;;1.40;0.90;;;22.60;68.20;;;;;;4967345;28;20574;-54
2022/09/14 10:32:59;;;;;;;2.55;1.10;;;22.60;68.10;;;;;;4976803;28;20056;-54
2022/09/14 10:35:38;;;;;;;1.13;1.02;;;22.60;68.20;;;;;;4980794;28;20050;-52
2022/09/14 10:38:17;;;;;;;1.67;1.05;;;22.60;67.90;;;;;;4969806;28;20054;-52
2022/09/14 10:40:51;;;;;;;1.40;1.10;;;22.60;67.80;;;;;;4975430;28;20081;-52
2022/09/14 10:43:29;;;;;;;1.58;1.23;;;22.70;67.70;;;;;;4978659;28;20054;-54
2022/09/14 10:46:01;;;;;;;3.05;1.20;;;22.70;67.90;;;;;;4977493;28;20506;-54
2022/09/14 10:48:51;;;;;;;1.85;1.23;;;22.70;67.90;;;;;;4978126;28;20054;-56
2022/09/14 10:51:33;;;;;;;1.65;1.30;;;22.70;67.80;;;;;;4967908;28;20054;-53
2022/09/14 10:54:10;;;;;;;1.85;1.23;;;22.70;67.50;;;;;;4973149;28;20049;-52
2022/09/14 10:56:54;;;;;;;1.45;1.10;;;22.70;67.50;;;;;;4974290;28;20061;-51
2022/09/14 10:59:30;;;;;;;2.92;1.40;;;22.70;67.70;;;;;;4985652;28;20058;-48
2022/09/14 11:02:24;;;;;;;1.40;1.20;;;22.70;67.60;;;;;;4981400;28;20058;-51
2022/09/14 11:05:10;;;;;;;1.80;1.10;;;22.70;67.60;;;;;;4985717;28;20054;-54
2022/09/14 11:07:52;;;;;;;1.30;1.10;;;22.60;67.50;;;;;;4985334;28;20050;-54
2022/09/14 11:10:28;;;;;;;2.10;1.60;;;22.60;67.50;;;;;;4980752;28;20058;-54
2022/09/14 11:13:21;;;;;;;2.42;1.50;;;22.60;67.30;;;;;;4982477;28;20057;-53
2022/09/14 11:15:55;;;;;;;6.28;1.67;;;22.60;67.30;;;;;;4981768;28;20050;-53
2022/09/14 11:18:30;;;;;;;6.85;2.47;;;22.60;67.20;;;;;;4985862;28;20081;-52
2022/09/14 11:21:06;;;;;;;3.88;2.20;;;22.50;67.30;;;;;;4980334;28;20501;-50
2022/09/14 11:23:46;;;;;;;3.95;2.72;;;22.50;67.90;;;;;;4981653;28;20062;-55
2022/09/14 11:26:18;;;;;;;6.50;3.00;;;22.50;67.40;;;;;;4984849;28;20054;-55
2022/09/14 11:28:51;;;;;;;9.68;2.92;;;22.40;67.50;;;;;;4982475;28;20073;-53
2022/09/14 11:31:23;;;;;;;5.10;2.70;;;22.30;67.70;;;;;;4982980;28;20054;-54
2022/09/14 11:33:55;;;;;;;5.78;2.97;;;22.20;67.90;;;;;;4982136;28;20058;-53
2022/09/14 11:36:26;;;;;;;3.63;2.83;;;22.10;68.40;;;;;;4983039;28;20062;-54
2022/09/14 11:38:59;;;;;;;3.72;3.10;;;22.00;68.70;;;;;;4981371;28;20525;-54
2022/09/14 11:41:32;;;;;;;7.30;4.05;;;21.90;69.10;;;;;;4977476;28;20065;-53
2022/09/14 11:44:04;;;;;;;223.50;11.27;;;21.90;69.60;;;;;;4985445;28;20054;-52
2022/09/14 11:46:34;;;;;;;12.30;4.80;;;21.80;70.00;;;;;;4983654;28;20054;-50
2022/09/14 11:49:11;;;;;;;17.92;5.07;;;21.80;70.40;;;;;;4983456;28;20054;-54
2022/09/14 11:51:43;;;;;;;7.95;5.90;;;21.70;71.00;;;;;;4981844;28;20073;-51
2022/09/14 11:54:18;;;;;;;6.00;5.50;;;21.60;71.50;;;;;;4984994;28;20057;-50
2022/09/14 11:56:49;;;;;;;6.28;5.47;;;21.60;71.90;;;;;;4982371;28;20054;-52
2022/09/14 11:59:37;;;;;;;6.38;5.18;;;21.50;72.20;;;;;;4985153;28;20050;-49
2022/09/14 12:02:49;;;;;;;6.78;5.78;;;21.50;72.40;;;;;;4977815;28;20054;-52
2022/09/14 12:05:34;;;;;;;5.45;4.95;;;21.40;72.50;;;;;;4970433;28;20057;-51
2022/09/14 12:08:20;;;;;;;5.53;4.93;;;21.50;72.70;;;;;;4983887;28;20061;-53
2022/09/14 12:11:28;;;;;;;6.05;5.13;;;21.40;72.70;;;;;;4978942;28;20413;-49
2022/09/14 12:14:29;;;;;;;5.35;4.82;;;21.40;72.80;;;;;;4923540;29;20056;-53
2022/09/14 12:17:15;;;;;;;6.25;5.65;;;21.40;72.90;;;;;;4980857;28;20510;-55
2022/09/14 12:19:43;;;;;;;8.15;6.30;;;21.50;73.20;;;;;;4975257;28;20391;-54
2022/09/14 12:22:29;;;;;;;6.18;5.63;;;21.40;73.10;;;;;;4977020;28;20062;-51
2022/09/14 12:25:03;;;;;;;5.93;5.35;;;21.40;73.30;;;;;;4977373;28;20058;-50
2022/09/14 12:27:35;;;;;;;6.95;6.25;;;21.40;73.50;;;;;;4979336;28;20050;-52
2022/09/14 12:30:23;;;;;;;7.68;6.88;;;21.40;73.70;;;;;;4971271;28;20055;-53
2022/09/14 12:32:50;;;;;;;5.50;5.00;;;21.50;73.80;;;;;;4973265;28;20498;-55
2022/09/14 12:35:51;;;;;;;5.28;4.78;;;21.50;73.50;;;;;;4972175;28;20055;-48
2022/09/14 12:39:03;;;;;;;6.10;5.50;;;21.60;73.90;;;;;;4889242;29;20048;-49
2022/09/14 12:42:10;;;;;;;6.78;4.65;;;21.60;74.10;;;;;;4887143;29;20416;-53
2022/09/14 12:44:40;;;;;;;5.88;5.20;;;21.70;74.10;;;;;;4984051;28;20065;-54
2022/09/14 12:47:39;;;;;;;7.38;5.72;;;21.80;73.80;;;;;;4983406;28;20058;-55
2022/09/14 12:50:14;;;;;;;4.47;4.03;;;21.80;73.60;;;;;;4977087;28;20522;-55
2022/09/14 12:52:56;;;;;;;5.80;4.85;;;21.90;73.10;;;;;;4979850;28;20058;-55
2022/09/14 12:55:47;;;;;;;5.35;4.85;;;21.90;72.70;;;;;;4981531;28;20134;-53
2022/09/14 12:58:49;;;;;;;5.20;4.70;;;21.90;72.40;;;;;;4982918;28;20054;-54
2022/09/14 13:01:28;;;;;;;5.28;4.78;;;21.90;72.20;;;;;;4944474;28;20054;-51
2022/09/14 13:03:56;;;;;;;4.60;4.20;;;21.90;71.90;;;;;;4980558;28;20054;-54